sensor_id;sensor_type;location;lat;lon;timestamp;temperature;humidity
26049;DHT22;13822;51.568;5.086;2024-01-27T00:05:28;3.90;99.90
26049;DHT22;13822;51.568;5.086;2024-01-27T00:10:58;3.90;99.90
26049;DHT22;13822;51.568;5.086;2024-01-27T00:16:46;3.80;99.90
26049;DHT22;13822;51.568;5.086;2024-01-27T00:22:25;3.80;99.90
26049;DHT22;13822;51.568;5.086;2024-01-27T00:28:02;3.80;99.90
26049;DHT22;13822;51.568;5.086;2024-01-27T00:33:31;3.80;99.90
26049;DHT22;13822;51.568;5.086;2024-01-27T00:39:16;3.70;99.90
26049;DHT22;13822;51.568;5.086;2024-01-27T00:45:12;3.70;99.90
26049;DHT22;13822;51.568;5.086;2024-01-27T00:50:35;3.70;99.90
26049;DHT22;13822;51.568;5.086;2024-01-27T00:56:11;3.60;99.90
26049;DHT22;13822;51.568;5.086;2024-01-27T01:01:35;3.60;99.90
26049;DHT22;13822;51.568;5.086;2024-01-27T01:07:08;3.60;99.90
26049;DHT22;13822;51.568;5.086;2024-01-27T01:12:45;3.60;99.90
26049;DHT22;13822;51.568;5.086;2024-01-27T01:18:13;3.50;99.90
26049;DHT22;13822;51.568;5.086;2024-01-27T01:23:33;3.60;99.90
26049;DHT22;13822;51.568;5.086;2024-01-27T01:29:03;3.50;99.90
26049;DHT22;13822;51.568;5.086;2024-01-27T01:34:14;3.50;99.90
26049;DHT22;13822;51.568;5.086;2024-01-27T01:39:21;3.40;99.90
26049;DHT22;13822;51.568;5.086;2024-01-27T01:45:03;3.40;99.90
26049;DHT22;13822;51.568;5.086;2024-01-27T01:50:36;3.30;99.90
26049;DHT22;13822;51.568;5.086;2024-01-27T01:55:53;3.30;99.90
26049;DHT22;13822;51.568;5.086;2024-01-27T02:06:55;3.20;99.90
26049;DHT22;13822;51.568;5.086;2024-01-27T02:12:31;3.20;99.90
26049;DHT22;13822;51.568;5.086;2024-01-27T02:18:07;3.10;99.90
26049;DHT22;13822;51.568;5.086;2024-01-27T02:23:43;3.00;99.90
26049;DHT22;13822;51.568;5.086;2024-01-27T02:29:23;3.00;99.90
26049;DHT22;13822;51.568;5.086;2024-01-27T02:34:51;2.90;99.90
26049;DHT22;13822;51.568;5.086;2024-01-27T02:40:27;3.00;99.90
26049;DHT22;13822;51.568;5.086;2024-01-27T02:45:45;2.90;99.90
26049;DHT22;13822;51.568;5.086;2024-01-27T02:51:04;2.90;99.90
26049;DHT22;13822;51.568;5.086;2024-01-27T02:56:38;2.80;99.90
26049;DHT22;13822;51.568;5.086;2024-01-27T03:02:10;2.80;99.90
26049;DHT22;13822;51.568;5.086;2024-01-27T03:07:45;2.80;99.90
26049;DHT22;13822;51.568;5.086;2024-01-27T03:13:07;2.80;99.90
26049;DHT22;13822;51.568;5.086;2024-01-27T03:18:28;2.80;99.90
26049;DHT22;13822;51.568;5.086;2024-01-27T03:24:06;2.80;99.90
26049;DHT22;13822;51.568;5.086;2024-01-27T03:29:28;2.70;99.90
26049;DHT22;13822;51.568;5.086;2024-01-27T03:34:54;2.80;99.90
26049;DHT22;13822;51.568;5.086;2024-01-27T03:40:37;2.80;99.90
26049;DHT22;13822;51.568;5.086;2024-01-27T03:45:57;2.70;99.90
26049;DHT22;13822;51.568;5.086;2024-01-27T03:51:33;2.70;99.90
26049;DHT22;13822;51.568;5.086;2024-01-27T03:56:54;2.70;99.90
26049;DHT22;13822;51.568;5.086;2024-01-27T04:02:02;2.70;99.90
26049;DHT22;13822;51.568;5.086;2024-01-27T04:07:17;2.60;99.90
26049;DHT22;13822;51.568;5.086;2024-01-27T04:12:26;2.60;99.90
26049;DHT22;13822;51.568;5.086;2024-01-27T04:18:03;2.60;99.90
26049;DHT22;13822;51.568;5.086;2024-01-27T04:23:20;2.50;99.90
26049;DHT22;13822;51.568;5.086;2024-01-27T04:28:47;2.50;99.90
26049;DHT22;13822;51.568;5.086;2024-01-27T04:39:24;2.50;99.90
26049;DHT22;13822;51.568;5.086;2024-01-27T04:45:14;2.50;99.90
26049;DHT22;13822;51.568;5.086;2024-01-27T04:50:29;2.50;99.90
26049;DHT22;13822;51.568;5.086;2024-01-27T04:55:53;2.50;99.90
26049;DHT22;13822;51.568;5.086;2024-01-27T05:01:00;2.50;99.90
26049;DHT22;13822;51.568;5.086;2024-01-27T05:06:13;2.50;99.90
26049;DHT22;13822;51.568;5.086;2024-01-27T05:11:56;2.50;99.90
26049;DHT22;13822;51.568;5.086;2024-01-27T05:17:35;2.40;99.90
26049;DHT22;13822;51.568;5.086;2024-01-27T05:22:58;2.40;99.90
26049;DHT22;13822;51.568;5.086;2024-01-27T05:28:22;2.40;99.90
26049;DHT22;13822;51.568;5.086;2024-01-27T05:33:58;2.40;99.90
26049;DHT22;13822;51.568;5.086;2024-01-27T05:39:24;2.30;99.90
26049;DHT22;13822;51.568;5.086;2024-01-27T05:44:35;2.30;99.90
26049;DHT22;13822;51.568;5.086;2024-01-27T05:55:18;2.20;99.90
26049;DHT22;13822;51.568;5.086;2024-01-27T06:00:37;2.10;99.90
26049;DHT22;13822;51.568;5.086;2024-01-27T06:05:48;2.10;99.90
26049;DHT22;13822;51.568;5.086;2024-01-27T06:11:22;2.10;99.90
26049;DHT22;13822;51.568;5.086;2024-01-27T06:16:51;2.00;99.90
26049;DHT22;13822;51.568;5.086;2024-01-27T06:22:18;2.00;99.90
26049;DHT22;13822;51.568;5.086;2024-01-27T06:27:34;2.00;99.90
26049;DHT22;13822;51.568;5.086;2024-01-27T06:32:43;1.90;99.90
26049;DHT22;13822;51.568;5.086;2024-01-27T06:38:11;1.90;99.90
26049;DHT22;13822;51.568;5.086;2024-01-27T06:43:18;1.90;99.90
26049;DHT22;13822;51.568;5.086;2024-01-27T06:48:30;1.80;99.90
26049;DHT22;13822;51.568;5.086;2024-01-27T06:53:45;1.80;99.90
26049;DHT22;13822;51.568;5.086;2024-01-27T06:59:05;1.70;99.90
26049;DHT22;13822;51.568;5.086;2024-01-27T07:04:30;1.80;99.90
26049;DHT22;13822;51.568;5.086;2024-01-27T07:09:36;1.80;99.90
26049;DHT22;13822;51.568;5.086;2024-01-27T07:14:38;1.70;99.90
26049;DHT22;13822;51.568;5.086;2024-01-27T07:19:40;1.80;99.90
26049;DHT22;13822;51.568;5.086;2024-01-27T07:24:42;1.70;99.90
26049;DHT22;13822;51.568;5.086;2024-01-27T07:29:44;1.70;99.90
26049;DHT22;13822;51.568;5.086;2024-01-27T07:34:46;1.70;99.90
26049;DHT22;13822;51.568;5.086;2024-01-27T07:39:48;1.70;99.90
26049;DHT22;13822;51.568;5.086;2024-01-27T07:44:52;1.70;99.90
26049;DHT22;13822;51.568;5.086;2024-01-27T07:49:54;1.60;99.90
26049;DHT22;13822;51.568;5.086;2024-01-27T07:54:56;1.60;99.90
26049;DHT22;13822;51.568;5.086;2024-01-27T07:59:58;1.60;99.90
26049;DHT22;13822;51.568;5.086;2024-01-27T08:05:00;1.60;99.90
26049;DHT22;13822;51.568;5.086;2024-01-27T08:10:05;1.60;99.90
26049;DHT22;13822;51.568;5.086;2024-01-27T08:15:07;1.70;99.90
26049;DHT22;13822;51.568;5.086;2024-01-27T08:20:09;1.70;99.90
26049;DHT22;13822;51.568;5.086;2024-01-27T08:25:11;1.70;99.90
26049;DHT22;13822;51.568;5.086;2024-01-27T08:30:13;1.70;99.90
26049;DHT22;13822;51.568;5.086;2024-01-27T08:35:16;1.80;99.90
26049;DHT22;13822;51.568;5.086;2024-01-27T08:40:18;1.70;99.90
26049;DHT22;13822;51.568;5.086;2024-01-27T08:45:21;1.80;99.90
26049;DHT22;13822;51.568;5.086;2024-01-27T08:50:23;1.90;99.90
26049;DHT22;13822;51.568;5.086;2024-01-27T08:55:25;1.90;99.90
26049;DHT22;13822;51.568;5.086;2024-01-27T09:00:27;1.90;99.90
26049;DHT22;13822;51.568;5.086;2024-01-27T09:05:29;2.00;99.90
26049;DHT22;13822;51.568;5.086;2024-01-27T09:10:31;2.10;99.90
26049;DHT22;13822;51.568;5.086;2024-01-27T09:15:33;2.20;99.90
26049;DHT22;13822;51.568;5.086;2024-01-27T09:20:35;2.30;99.90
26049;DHT22;13822;51.568;5.086;2024-01-27T09:25:37;2.30;99.90
26049;DHT22;13822;51.568;5.086;2024-01-27T09:30:39;2.40;99.90
26049;DHT22;13822;51.568;5.086;2024-01-27T09:35:41;2.50;99.90
26049;DHT22;13822;51.568;5.086;2024-01-27T09:40:43;2.60;99.90
26049;DHT22;13822;51.568;5.086;2024-01-27T09:45:45;2.70;99.90
26049;DHT22;13822;51.568;5.086;2024-01-27T09:50:47;2.70;99.90
26049;DHT22;13822;51.568;5.086;2024-01-27T09:55:50;2.90;99.90
26049;DHT22;13822;51.568;5.086;2024-01-27T10:01:01;3.00;99.90
26049;DHT22;13822;51.568;5.086;2024-01-27T10:06:04;3.10;99.90
26049;DHT22;13822;51.568;5.086;2024-01-27T10:11:10;3.10;99.90
26049;DHT22;13822;51.568;5.086;2024-01-27T10:16:15;3.20;99.90
26049;DHT22;13822;51.568;5.086;2024-01-27T10:21:17;3.40;99.90
26049;DHT22;13822;51.568;5.086;2024-01-27T10:26:21;3.40;99.90
26049;DHT22;13822;51.568;5.086;2024-01-27T10:31:26;3.60;99.90
26049;DHT22;13822;51.568;5.086;2024-01-27T10:36:38;3.70;99.90
26049;DHT22;13822;51.568;5.086;2024-01-27T10:41:46;3.80;99.90
26049;DHT22;13822;51.568;5.086;2024-01-27T10:46:49;3.90;99.90
26049;DHT22;13822;51.568;5.086;2024-01-27T10:51:55;4.00;99.90
26049;DHT22;13822;51.568;5.086;2024-01-27T10:56:58;4.20;99.90
26049;DHT22;13822;51.568;5.086;2024-01-27T11:02:00;4.30;99.90
26049;DHT22;13822;51.568;5.086;2024-01-27T11:07:02;4.40;99.90
26049;DHT22;13822;51.568;5.086;2024-01-27T11:12:06;4.60;99.90
26049;DHT22;13822;51.568;5.086;2024-01-27T11:17:08;4.70;99.90
26049;DHT22;13822;51.568;5.086;2024-01-27T11:22:31;4.80;99.90
26049;DHT22;13822;51.568;5.086;2024-01-27T11:27:33;5.00;99.90
26049;DHT22;13822;51.568;5.086;2024-01-27T11:32:36;5.10;99.90
26049;DHT22;13822;51.568;5.086;2024-01-27T11:37:38;5.20;99.90
26049;DHT22;13822;51.568;5.086;2024-01-27T11:42:43;5.40;99.90
26049;DHT22;13822;51.568;5.086;2024-01-27T11:47:45;5.50;99.90
26049;DHT22;13822;51.568;5.086;2024-01-27T11:52:47;5.60;99.90
26049;DHT22;13822;51.568;5.086;2024-01-27T11:57:49;5.70;99.90
26049;DHT22;13822;51.568;5.086;2024-01-27T12:02:51;5.80;99.90
26049;DHT22;13822;51.568;5.086;2024-01-27T12:07:53;6.00;99.90
26049;DHT22;13822;51.568;5.086;2024-01-27T12:12:56;6.10;99.90
26049;DHT22;13822;51.568;5.086;2024-01-27T12:17:57;6.20;99.90
26049;DHT22;13822;51.568;5.086;2024-01-27T12:23:03;6.40;99.90
26049;DHT22;13822;51.568;5.086;2024-01-27T12:28:08;6.50;99.90
26049;DHT22;13822;51.568;5.086;2024-01-27T12:33:11;6.60;99.90
26049;DHT22;13822;51.568;5.086;2024-01-27T12:38:14;6.70;99.90
26049;DHT22;13822;51.568;5.086;2024-01-27T12:43:16;6.70;99.90
26049;DHT22;13822;51.568;5.086;2024-01-27T12:48:18;6.80;99.90
26049;DHT22;13822;51.568;5.086;2024-01-27T12:53:21;6.90;99.90
26049;DHT22;13822;51.568;5.086;2024-01-27T12:58:22;7.00;99.90
26049;DHT22;13822;51.568;5.086;2024-01-27T13:03:25;7.10;99.90
26049;DHT22;13822;51.568;5.086;2024-01-27T13:08:27;7.20;99.90
26049;DHT22;13822;51.568;5.086;2024-01-27T13:13:29;7.20;99.90
26049;DHT22;13822;51.568;5.086;2024-01-27T13:18:31;7.30;99.90
26049;DHT22;13822;51.568;5.086;2024-01-27T13:23:33;7.40;99.90
26049;DHT22;13822;51.568;5.086;2024-01-27T13:28:35;7.40;99.90
26049;DHT22;13822;51.568;5.086;2024-01-27T13:33:40;7.50;99.90
26049;DHT22;13822;51.568;5.086;2024-01-27T13:38:42;7.50;99.90
26049;DHT22;13822;51.568;5.086;2024-01-27T13:43:44;7.50;99.90
26049;DHT22;13822;51.568;5.086;2024-01-27T13:48:47;7.50;99.90
26049;DHT22;13822;51.568;5.086;2024-01-27T13:53:50;7.60;99.90
26049;DHT22;13822;51.568;5.086;2024-01-27T13:58:52;7.60;99.90
26049;DHT22;13822;51.568;5.086;2024-01-27T14:03:55;7.60;99.90
26049;DHT22;13822;51.568;5.086;2024-01-27T14:08:57;7.70;99.90
26049;DHT22;13822;51.568;5.086;2024-01-27T14:13:59;7.70;99.90
26049;DHT22;13822;51.568;5.086;2024-01-27T14:19:01;7.70;99.90
26049;DHT22;13822;51.568;5.086;2024-01-27T14:24:03;7.70;99.90
26049;DHT22;13822;51.568;5.086;2024-01-27T14:29:07;7.70;99.90
26049;DHT22;13822;51.568;5.086;2024-01-27T14:34:09;7.70;99.90
26049;DHT22;13822;51.568;5.086;2024-01-27T14:39:11;7.70;99.90
26049;DHT22;13822;51.568;5.086;2024-01-27T14:44:14;7.70;99.90
26049;DHT22;13822;51.568;5.086;2024-01-27T14:49:15;7.70;99.90
26049;DHT22;13822;51.568;5.086;2024-01-27T14:54:18;7.70;99.90
26049;DHT22;13822;51.568;5.086;2024-01-27T14:59:22;7.70;99.90
26049;DHT22;13822;51.568;5.086;2024-01-27T15:04:24;7.70;99.90
26049;DHT22;13822;51.568;5.086;2024-01-27T15:09:29;7.70;99.90
26049;DHT22;13822;51.568;5.086;2024-01-27T15:14:31;7.70;99.90
26049;DHT22;13822;51.568;5.086;2024-01-27T15:19:33;7.60;99.90
26049;DHT22;13822;51.568;5.086;2024-01-27T15:24:42;7.60;99.90
26049;DHT22;13822;51.568;5.086;2024-01-27T15:29:44;7.60;99.90
26049;DHT22;13822;51.568;5.086;2024-01-27T15:34:46;7.50;99.90
26049;DHT22;13822;51.568;5.086;2024-01-27T15:39:48;7.50;99.90
26049;DHT22;13822;51.568;5.086;2024-01-27T15:44:51;7.50;99.90
26049;DHT22;13822;51.568;5.086;2024-01-27T15:49:53;7.40;99.90
26049;DHT22;13822;51.568;5.086;2024-01-27T15:54:59;7.40;99.90
26049;DHT22;13822;51.568;5.086;2024-01-27T16:00:01;7.20;99.90
26049;DHT22;13822;51.568;5.086;2024-01-27T16:05:03;7.10;99.90
26049;DHT22;13822;51.568;5.086;2024-01-27T16:10:06;7.00;99.90
26049;DHT22;13822;51.568;5.086;2024-01-27T16:15:08;6.90;99.90
26049;DHT22;13822;51.568;5.086;2024-01-27T16:20:11;6.70;99.90
26049;DHT22;13822;51.568;5.086;2024-01-27T16:25:13;6.60;99.90
26049;DHT22;13822;51.568;5.086;2024-01-27T16:30:15;6.40;99.90
26049;DHT22;13822;51.568;5.086;2024-01-27T16:35:18;6.30;99.90
26049;DHT22;13822;51.568;5.086;2024-01-27T16:40:20;6.20;99.90
26049;DHT22;13822;51.568;5.086;2024-01-27T16:45:22;6.00;99.90
26049;DHT22;13822;51.568;5.086;2024-01-27T16:50:25;5.80;99.90
26049;DHT22;13822;51.568;5.086;2024-01-27T16:55:27;5.70;99.90
26049;DHT22;13822;51.568;5.086;2024-01-27T17:00:46;5.60;99.90
26049;DHT22;13822;51.568;5.086;2024-01-27T17:05:55;5.50;99.90
26049;DHT22;13822;51.568;5.086;2024-01-27T17:11:14;5.40;99.90
26049;DHT22;13822;51.568;5.086;2024-01-27T17:16:27;5.40;99.90
26049;DHT22;13822;51.568;5.086;2024-01-27T17:21:33;5.30;99.90
26049;DHT22;13822;51.568;5.086;2024-01-27T17:26:50;5.30;99.90
26049;DHT22;13822;51.568;5.086;2024-01-27T17:32:12;5.20;99.90
26049;DHT22;13822;51.568;5.086;2024-01-27T17:37:16;5.20;99.90
26049;DHT22;13822;51.568;5.086;2024-01-27T17:42:30;5.20;99.90
26049;DHT22;13822;51.568;5.086;2024-01-27T17:47:41;5.10;99.90
26049;DHT22;13822;51.568;5.086;2024-01-27T17:53:07;5.10;99.90
26049;DHT22;13822;51.568;5.086;2024-01-27T17:58:12;5.00;99.90
26049;DHT22;13822;51.568;5.086;2024-01-27T18:03:21;5.00;99.90
26049;DHT22;13822;51.568;5.086;2024-01-27T18:09:33;4.90;99.90
26049;DHT22;13822;51.568;5.086;2024-01-27T18:15:43;4.80;99.90
26049;DHT22;13822;51.568;5.086;2024-01-27T18:21:16;4.80;99.90
26049;DHT22;13822;51.568;5.086;2024-01-27T18:33:19;4.80;99.90
26049;DHT22;13822;51.568;5.086;2024-01-27T18:38:56;4.80;99.90
26049;DHT22;13822;51.568;5.086;2024-01-27T18:44:30;4.80;99.90
26049;DHT22;13822;51.568;5.086;2024-01-27T18:50:40;4.70;99.90
26049;DHT22;13822;51.568;5.086;2024-01-27T18:56:13;4.70;99.90
26049;DHT22;13822;51.568;5.086;2024-01-27T19:01:28;4.60;99.90
26049;DHT22;13822;51.568;5.086;2024-01-27T19:07:06;4.60;99.90
26049;DHT22;13822;51.568;5.086;2024-01-27T19:12:49;4.60;99.90
26049;DHT22;13822;51.568;5.086;2024-01-27T19:18:18;4.50;99.90
26049;DHT22;13822;51.568;5.086;2024-01-27T19:23:59;4.40;99.90
26049;DHT22;13822;51.568;5.086;2024-01-27T19:29:28;4.40;99.90
26049;DHT22;13822;51.568;5.086;2024-01-27T19:34:49;4.40;99.90
26049;DHT22;13822;51.568;5.086;2024-01-27T19:40:02;4.40;99.90
26049;DHT22;13822;51.568;5.086;2024-01-27T19:45:19;4.40;99.90
26049;DHT22;13822;51.568;5.086;2024-01-27T19:50:43;4.30;99.90
26049;DHT22;13822;51.568;5.086;2024-01-27T19:56:27;4.20;99.90
26049;DHT22;13822;51.568;5.086;2024-01-27T20:02:06;4.30;99.90
26049;DHT22;13822;51.568;5.086;2024-01-27T20:08:00;4.20;99.90
26049;DHT22;13822;51.568;5.086;2024-01-27T20:13:53;4.10;99.90
26049;DHT22;13822;51.568;5.086;2024-01-27T20:19:17;4.10;99.90
26049;DHT22;13822;51.568;5.086;2024-01-27T20:25:04;4.10;99.90
26049;DHT22;13822;51.568;5.086;2024-01-27T20:30:17;4.00;99.90
26049;DHT22;13822;51.568;5.086;2024-01-27T20:35:44;4.00;99.90
26049;DHT22;13822;51.568;5.086;2024-01-27T20:41:19;4.00;99.90
26049;DHT22;13822;51.568;5.086;2024-01-27T20:52:39;3.90;99.90
26049;DHT22;13822;51.568;5.086;2024-01-27T20:58:26;3.90;99.90
26049;DHT22;13822;51.568;5.086;2024-01-27T21:03:46;3.80;99.90
26049;DHT22;13822;51.568;5.086;2024-01-27T21:09:03;3.70;99.90
26049;DHT22;13822;51.568;5.086;2024-01-27T21:14:09;3.70;99.90
26049;DHT22;13822;51.568;5.086;2024-01-27T21:31:46;3.60;99.90
26049;DHT22;13822;51.568;5.086;2024-01-27T21:37:35;3.50;99.90
26049;DHT22;13822;51.568;5.086;2024-01-27T21:42:57;3.50;99.90
26049;DHT22;13822;51.568;5.086;2024-01-27T21:48:04;3.50;99.90
26049;DHT22;13822;51.568;5.086;2024-01-27T21:53:52;3.40;99.90
26049;DHT22;13822;51.568;5.086;2024-01-27T21:59:04;3.30;99.90
26049;DHT22;13822;51.568;5.086;2024-01-27T22:04:40;3.40;99.90
26049;DHT22;13822;51.568;5.086;2024-01-27T22:21:59;3.30;99.90
26049;DHT22;13822;51.568;5.086;2024-01-27T22:27:17;3.20;99.90
26049;DHT22;13822;51.568;5.086;2024-01-27T22:32:41;3.20;99.90
26049;DHT22;13822;51.568;5.086;2024-01-27T22:38:03;3.20;99.90
26049;DHT22;13822;51.568;5.086;2024-01-27T22:43:35;3.20;99.90
26049;DHT22;13822;51.568;5.086;2024-01-27T22:49:02;3.20;99.90
26049;DHT22;13822;51.568;5.086;2024-01-27T22:54:17;3.20;99.90
26049;DHT22;13822;51.568;5.086;2024-01-27T22:59:26;3.10;99.90
26049;DHT22;13822;51.568;5.086;2024-01-27T23:04:53;3.10;99.90
26049;DHT22;13822;51.568;5.086;2024-01-27T23:10:37;3.10;99.90
26049;DHT22;13822;51.568;5.086;2024-01-27T23:15:47;3.10;99.90
26049;DHT22;13822;51.568;5.086;2024-01-27T23:21:08;3.10;99.90
26049;DHT22;13822;51.568;5.086;2024-01-27T23:26:32;3.10;99.90
26049;DHT22;13822;51.568;5.086;2024-01-27T23:31:40;3.20;99.90
26049;DHT22;13822;51.568;5.086;2024-01-27T23:37:16;3.20;99.90
26049;DHT22;13822;51.568;5.086;2024-01-27T23:42:37;3.20;99.90
26049;DHT22;13822;51.568;5.086;2024-01-27T23:47:53;3.20;99.90
26049;DHT22;13822;51.568;5.086;2024-01-27T23:52:59;3.10;99.90
26049;DHT22;13822;51.568;5.086;2024-01-27T23:58:12;3.10;99.90
